Time;durP1;ratioP1;P1;durP2;ratioP2;P2;SDS_P1;SDS_P2;PMS_P1;PMS_P2;Temp;Humidity;BMP_temperature;BMP_pressure;BME280_temperature;BME280_humidity;BME280_pressure;Samples;Min_cycle;Max_cycle;Signal;HPM_P1;HPM_P2
2022/07/23 00:00:32;;;;;;;;;;;;;;;;;;5076828;28;20286;-27
2022/07/23 00:02:58;;;;;;;;;;;;;;;;;;5077041;28;19908;-27
2022/07/23 00:05:24;;;;;;;;;;;;;;;;;;5077005;28;20309;-27
2022/07/23 00:07:50;;;;;;;;;;;;;;;;;;5076536;28;19921;-27
2022/07/23 00:10:16;;;;;;;;;;;;;;;;;;5076944;28;20326;-27
2022/07/23 00:12:42;;;;;;;;;;;;;;;;;;5076557;28;19908;-26
2022/07/23 00:15:08;;;;;;;;;;;;;;;;;;5076559;28;19909;-27
2022/07/23 00:17:34;;;;;;;;;;;;;;;;;;5076515;28;19935;-27
2022/07/23 00:20:00;;;;;;;;;;;;;;;;;;5076384;28;19923;-26
2022/07/23 00:22:27;;;;;;;;;;;;;;;;;;5077208;28;19905;-26
2022/07/23 00:24:53;;;;;;;;;;;;;;;;;;5076604;28;20255;-26
2022/07/23 00:27:19;;;;;;;;;;;;;;;;;;5076790;28;19917;-27
2022/07/23 00:29:45;;;;;;;;;;;;;;;;;;5076433;28;19912;-26
2022/07/23 00:32:11;;;;;;;;;;;;;;;;;;5076210;28;20250;-26
2022/07/23 00:34:37;;;;;;;;;;;;;;;;;;5076158;28;20429;-26
2022/07/23 00:37:03;;;;;;;;;;;;;;;;;;5076064;28;19912;-27
2022/07/23 00:39:29;;;;;;;;;;;;;;;;;;5076223;28;19916;-26
2022/07/23 00:41:55;;;;;;;;;;;;;;;;;;5075920;28;19913;-27
2022/07/23 00:44:21;;;;;;;;;;;;;;;;;;5076247;28;19913;-26
2022/07/23 00:46:47;;;;;;;;;;;;;;;;;;5075835;28;19924;-27
2022/07/23 00:49:13;;;;;;;;;;;;;;;;;;5075579;28;19928;-27
2022/07/23 00:51:39;;;;;;;;;;;;;;;;;;5074862;28;19974;-26
2022/07/23 00:54:05;;;;;;;;;;;;;;;;;;5075745;28;19909;-27
2022/07/23 00:56:31;;;;;;;;;;;;;;;;;;5075756;28;19912;-26
2022/07/23 00:58:57;;;;;;;;;;;;;;;;;;5075947;28;19912;-27
2022/07/23 01:01:23;;;;;;;;;;;;;;;;;;5075629;28;20326;-27
2022/07/23 01:03:49;;;;;;;;;;;;;;;;;;5075620;28;19912;-27
2022/07/23 01:06:15;;;;;;;;;;;;;;;;;;5075501;28;19929;-27
2022/07/23 01:08:41;;;;;;;;;;;;;;;;;;5074532;28;19922;-27
2022/07/23 01:11:06;;;;;;;;;;;;;;;;;;5075543;28;19920;-26
2022/07/23 01:13:32;;;;;;;;;;;;;;;;;;5075755;28;20336;-26
2022/07/23 01:15:58;;;;;;;;;;;;;;;;;;5075248;28;19916;-26
2022/07/23 01:18:24;;;;;;;;;;;;;;;;;;5075570;28;20323;-26
2022/07/23 01:20:50;;;;;;;;;;;;;;;;;;5075922;28;20361;-26
2022/07/23 01:23:16;;;;;;;;;;;;;;;;;;5075915;28;19909;-27
2022/07/23 01:25:42;;;;;;;;;;;;;;;;;;5074346;28;20343;-27
2022/07/23 01:28:08;;;;;;;;;;;;;;;;;;5075121;28;19913;-27
2022/07/23 01:30:34;;;;;;;;;;;;;;;;;;5075241;28;19917;-27
2022/07/23 01:33:00;;;;;;;;;;;;;;;;;;5075756;28;20327;-26
2022/07/23 01:35:26;;;;;;;;;;;;;;;;;;5075181;28;20013;-26
2022/07/23 01:37:52;;;;;;;;;;;;;;;;;;5074100;28;19904;-27
2022/07/23 01:40:18;;;;;;;;;;;;;;;;;;5075117;28;19909;-27
2022/07/23 01:42:44;;;;;;;;;;;;;;;;;;5075121;28;19958;-27
2022/07/23 01:45:10;;;;;;;;;;;;;;;;;;5075061;28;20363;-27
2022/07/23 01:47:36;;;;;;;;;;;;;;;;;;5075797;28;19912;-26
2022/07/23 01:50:02;;;;;;;;;;;;;;;;;;5074703;28;19916;-26
2022/07/23 01:52:28;;;;;;;;;;;;;;;;;;5075267;28;19917;-27
2022/07/23 01:54:54;;;;;;;;;;;;;;;;;;5075306;28;20055;-27
2022/07/23 01:57:20;;;;;;;;;;;;;;;;;;5074973;28;19913;-27
2022/07/23 01:59:46;;;;;;;;;;;;;;;;;;5074877;28;19912;-26
2022/07/23 02:02:12;;;;;;;;;;;;;;;;;;5075172;28;19916;-26
2022/07/23 02:04:38;;;;;;;;;;;;;;;;;;5075185;28;19917;-26
2022/07/23 02:07:04;;;;;;;;;;;;;;;;;;5075378;28;19925;-27
2022/07/23 02:09:30;;;;;;;;;;;;;;;;;;5075311;28;19908;-26
2022/07/23 02:11:57;;;;;;;;;;;;;;;;;;5074853;28;20355;-26
2022/07/23 02:14:23;;;;;;;;;;;;;;;;;;5075085;28;20250;-26
2022/07/23 02:16:49;;;;;;;;;;;;;;;;;;5075073;28;19999;-27
2022/07/23 02:19:15;;;;;;;;;;;;;;;;;;5074836;28;19912;-27
2022/07/23 02:21:41;;;;;;;;;;;;;;;;;;5074697;28;19909;-27
2022/07/23 02:24:07;;;;;;;;;;;;;;;;;;5074794;28;19991;-27
2022/07/23 02:26:34;;;;;;;;;;;;;;;;;;5074853;28;19969;-27
2022/07/23 02:29:00;;;;;;;;;;;;;;;;;;5076147;28;19908;-27
2022/07/23 02:31:26;;;;;;;;;;;;;;;;;;5078527;28;20266;-26
2022/07/23 02:33:52;;;;;;;;;;;;;;;;;;5078492;28;19919;-27
2022/07/23 02:36:18;;;;;;;;;;;;;;;;;;5078354;28;19923;-27
2022/07/23 02:38:44;;;;;;;;;;;;;;;;;;5078520;28;19920;-27
2022/07/23 02:41:10;;;;;;;;;;;;;;;;;;5078356;28;19919;-27
2022/07/23 02:43:36;;;;;;;;;;;;;;;;;;5078287;28;19908;-26
2022/07/23 02:46:02;;;;;;;;;;;;;;;;;;5078201;28;20008;-26
2022/07/23 02:48:28;;;;;;;;;;;;;;;;;;5078361;28;19913;-26
2022/07/23 02:50:56;;;;;;;;;;;;;;;;;;5078469;28;19920;-26
2022/07/23 02:53:22;;;;;;;;;;;;;;;;;;5078116;28;19966;-27
2022/07/23 02:55:48;;;;;;;;;;;;;;;;;;5078004;28;19916;-27
2022/07/23 02:58:14;;;;;;;;;;;;;;;;;;5077979;28;19908;-27
2022/07/23 03:00:40;;;;;;;;;;;;;;;;;;5077895;28;19969;-27
2022/07/23 03:03:07;;;;;;;;;;;;;;;;;;5077912;28;19965;-26
2022/07/23 03:05:33;;;;;;;;;;;;;;;;;;5077836;28;19974;-26
2022/07/23 03:07:59;;;;;;;;;;;;;;;;;;5077945;28;19940;-27
2022/07/23 03:10:25;;;;;;;;;;;;;;;;;;5077875;28;19915;-27
2022/07/23 03:12:51;;;;;;;;;;;;;;;;;;5077798;28;19908;-27
2022/07/23 03:15:17;;;;;;;;;;;;;;;;;;5077655;28;19919;-26
2022/07/23 03:17:43;;;;;;;;;;;;;;;;;;5077686;28;19905;-26
2022/07/23 03:20:09;;;;;;;;;;;;;;;;;;5077565;28;19922;-27
2022/07/23 03:22:35;;;;;;;;;;;;;;;;;;5078144;28;19904;-27
2022/07/23 03:25:01;;;;;;;;;;;;;;;;;;5078126;28;19962;-27
2022/07/23 03:27:27;;;;;;;;;;;;;;;;;;5077971;28;19913;-27
2022/07/23 03:29:52;;;;;;;;;;;;;;;;;;5077380;28;20366;-26
2022/07/23 03:32:18;;;;;;;;;;;;;;;;;;5077405;28;19908;-27
2022/07/23 03:34:44;;;;;;;;;;;;;;;;;;5077283;28;19935;-26
2022/07/23 03:37:10;;;;;;;;;;;;;;;;;;5077339;28;19948;-26
2022/07/23 03:39:36;;;;;;;;;;;;;;;;;;5077416;28;19912;-26
2022/07/23 03:42:02;;;;;;;;;;;;;;;;;;5077221;28;19908;-27
2022/07/23 03:44:28;;;;;;;;;;;;;;;;;;5077783;28;19912;-27
2022/07/23 03:46:54;;;;;;;;;;;;;;;;;;5077323;28;20416;-27
2022/07/23 03:49:20;;;;;;;;;;;;;;;;;;5076782;28;19927;-27
2022/07/23 03:51:46;;;;;;;;;;;;;;;;;;5077281;28;19912;-27
2022/07/23 03:54:12;;;;;;;;;;;;;;;;;;5076922;28;19999;-27
2022/07/23 03:56:38;;;;;;;;;;;;;;;;;;5076859;28;19950;-27
2022/07/23 03:59:04;;;;;;;;;;;;;;;;;;5076990;28;19966;-27
2022/07/23 04:01:30;;;;;;;;;;;;;;;;;;5076809;28;19917;-26
2022/07/23 04:03:56;;;;;;;;;;;;;;;;;;5077259;28;20323;-27
2022/07/23 04:06:22;;;;;;;;;;;;;;;;;;5076393;28;19924;-27
2022/07/23 04:08:48;;;;;;;;;;;;;;;;;;5075626;28;19919;-27
2022/07/23 04:11:14;;;;;;;;;;;;;;;;;;5076875;28;20243;-27
2022/07/23 04:13:40;;;;;;;;;;;;;;;;;;5076601;28;19916;-27
2022/07/23 04:16:06;;;;;;;;;;;;;;;;;;5076494;28;19966;-27
2022/07/23 04:18:32;;;;;;;;;;;;;;;;;;5076361;28;20362;-27
2022/07/23 04:20:58;;;;;;;;;;;;;;;;;;5076322;28;19913;-27
2022/07/23 04:23:24;;;;;;;;;;;;;;;;;;5076294;28;19908;-27
2022/07/23 04:25:50;;;;;;;;;;;;;;;;;;5076203;28;19916;-27
2022/07/23 04:28:16;;;;;;;;;;;;;;;;;;5076012;28;19913;-27
2022/07/23 04:30:42;;;;;;;;;;;;;;;;;;5076063;28;19912;-27
2022/07/23 04:33:07;;;;;;;;;;;;;;;;;;5076376;28;19916;-27
2022/07/23 04:35:33;;;;;;;;;;;;;;;;;;5076077;28;19943;-27
2022/07/23 04:37:59;;;;;;;;;;;;;;;;;;5076520;28;19948;-27
2022/07/23 04:40:25;;;;;;;;;;;;;;;;;;5075947;28;20374;-27
2022/07/23 04:42:51;;;;;;;;;;;;;;;;;;5076194;28;19908;-27
2022/07/23 04:45:17;;;;;;;;;;;;;;;;;;5076114;28;19959;-27
2022/07/23 04:47:43;;;;;;;;;;;;;;;;;;5075775;28;20309;-27
2022/07/23 04:50:09;;;;;;;;;;;;;;;;;;5075582;28;19943;-27
2022/07/23 04:52:35;;;;;;;;;;;;;;;;;;5075096;28;19948;-27
2022/07/23 04:55:01;;;;;;;;;;;;;;;;;;5075811;28;19920;-27
2022/07/23 04:57:27;;;;;;;;;;;;;;;;;;5075618;28;19939;-27
2022/07/23 04:59:53;;;;;;;;;;;;;;;;;;5075855;28;19958;-27
2022/07/23 05:02:20;;;;;;;;;;;;;;;;;;5075847;28;19917;-27
2022/07/23 05:04:46;;;;;;;;;;;;;;;;;;5075542;28;19920;-27
2022/07/23 05:07:12;;;;;;;;;;;;;;;;;;5075394;28;19920;-27
2022/07/23 05:09:38;;;;;;;;;;;;;;;;;;5075534;28;19943;-27
2022/07/23 05:12:04;;;;;;;;;;;;;;;;;;5074446;28;20293;-27
2022/07/23 05:14:30;;;;;;;;;;;;;;;;;;5075991;28;19909;-27
2022/07/23 05:16:56;;;;;;;;;;;;;;;;;;5075335;28;19913;-27
2022/07/23 05:19:22;;;;;;;;;;;;;;;;;;5075176;28;20208;-27
2022/07/23 05:21:48;;;;;;;;;;;;;;;;;;5075283;28;20018;-27
2022/07/23 05:24:14;;;;;;;;;;;;;;;;;;5075181;28;19936;-27
2022/07/23 05:26:40;;;;;;;;;;;;;;;;;;5075350;28;20015;-27
2022/07/23 05:29:06;;;;;;;;;;;;;;;;;;5075125;28;19909;-27
2022/07/23 05:31:32;;;;;;;;;;;;;;;;;;5075475;28;19954;-27
2022/07/23 05:33:58;;;;;;;;;;;;;;;;;;5075170;28;20345;-27
2022/07/23 05:36:24;;;;;;;;;;;;;;;;;;5075151;28;20278;-27
2022/07/23 05:38:50;;;;;;;;;;;;;;;;;;5074994;28;20003;-27
2022/07/23 05:41:16;;;;;;;;;;;;;;;;;;5075023;28;19923;-27
2022/07/23 05:43:42;;;;;;;;;;;;;;;;;;5075327;28;19908;-27
2022/07/23 05:46:08;;;;;;;;;;;;;;;;;;5075170;28;19912;-27
2022/07/23 05:48:34;;;;;;;;;;;;;;;;;;5075164;28;19923;-27
2022/07/23 05:51:00;;;;;;;;;;;;;;;;;;5075587;28;19978;-27
2022/07/23 05:53:26;;;;;;;;;;;;;;;;;;5074919;28;19915;-27
2022/07/23 05:55:52;;;;;;;;;;;;;;;;;;5075467;28;19913;-27
2022/07/23 05:58:18;;;;;;;;;;;;;;;;;;5075459;28;20247;-27
2022/07/23 06:00:44;;;;;;;;;;;;;;;;;;5074946;28;19966;-27
2022/07/23 06:03:10;;;;;;;;;;;;;;;;;;5077047;28;19916;-27
2022/07/23 06:05:36;;;;;;;;;;;;;;;;;;5079194;28;19923;-27
2022/07/23 06:08:02;;;;;;;;;;;;;;;;;;5078774;28;19916;-28
2022/07/23 06:10:28;;;;;;;;;;;;;;;;;;5078923;28;19962;-27
2022/07/23 06:12:54;;;;;;;;;;;;;;;;;;5079058;28;19943;-27
2022/07/23 06:15:20;;;;;;;;;;;;;;;;;;5079447;28;20350;-27
2022/07/23 06:17:46;;;;;;;;;;;;;;;;;;5078799;28;19908;-27
2022/07/23 06:20:12;;;;;;;;;;;;;;;;;;5079159;28;19912;-27
2022/07/23 06:22:38;;;;;;;;;;;;;;;;;;5078701;28;19913;-27
2022/07/23 06:25:04;;;;;;;;;;;;;;;;;;5078944;28;19995;-27
2022/07/23 06:27:30;;;;;;;;;;;;;;;;;;5078828;28;20323;-27
2022/07/23 06:29:56;;;;;;;;;;;;;;;;;;5078530;28;19927;-27
2022/07/23 06:32:22;;;;;;;;;;;;;;;;;;5078553;28;19912;-27
2022/07/23 06:34:48;;;;;;;;;;;;;;;;;;5078402;28;19908;-27
2022/07/23 06:37:14;;;;;;;;;;;;;;;;;;5078360;28;20313;-27
2022/07/23 06:39:40;;;;;;;;;;;;;;;;;;5078281;28;19950;-26
2022/07/23 06:42:06;;;;;;;;;;;;;;;;;;5078497;28;19912;-27
2022/07/23 06:44:32;;;;;;;;;;;;;;;;;;5078212;28;20003;-27
2022/07/23 06:46:58;;;;;;;;;;;;;;;;;;5078636;28;19916;-27
2022/07/23 06:49:24;;;;;;;;;;;;;;;;;;5078211;28;19995;-27
2022/07/23 06:51:50;;;;;;;;;;;;;;;;;;5078318;28;19913;-27
2022/07/23 06:54:16;;;;;;;;;;;;;;;;;;5078042;28;19909;-27
2022/07/23 06:56:43;;;;;;;;;;;;;;;;;;5078283;28;19912;-27
2022/07/23 06:59:09;;;;;;;;;;;;;;;;;;5078163;28;19912;-27
2022/07/23 07:01:35;;;;;;;;;;;;;;;;;;5078200;28;19985;-27
2022/07/23 07:04:01;;;;;;;;;;;;;;;;;;5077849;28;19959;-27
2022/07/23 07:06:27;;;;;;;;;;;;;;;;;;5078269;28;19920;-27
2022/07/23 07:08:53;;;;;;;;;;;;;;;;;;5077770;28;19999;-27
2022/07/23 07:11:18;;;;;;;;;;;;;;;;;;5077958;28;19939;-27
2022/07/23 07:13:44;;;;;;;;;;;;;;;;;;5077944;28;19948;-27
2022/07/23 07:16:10;;;;;;;;;;;;;;;;;;5077517;28;19970;-28
2022/07/23 07:18:36;;;;;;;;;;;;;;;;;;5077555;28;19912;-27
2022/07/23 07:21:02;;;;;;;;;;;;;;;;;;5077855;28;20228;-27
2022/07/23 07:23:28;;;;;;;;;;;;;;;;;;5078132;28;19909;-27
2022/07/23 07:25:54;;;;;;;;;;;;;;;;;;5078025;28;19965;-27
2022/07/23 07:28:20;;;;;;;;;;;;;;;;;;5077538;28;19920;-27
2022/07/23 07:30:46;;;;;;;;;;;;;;;;;;5077380;28;19912;-27
2022/07/23 07:33:12;;;;;;;;;;;;;;;;;;5077688;28;19921;-27
2022/07/23 07:35:38;;;;;;;;;;;;;;;;;;5077310;28;20085;-27
2022/07/23 07:38:04;;;;;;;;;;;;;;;;;;5077677;28;19908;-27
2022/07/23 07:40:30;;;;;;;;;;;;;;;;;;5077769;28;19920;-27
2022/07/23 07:42:56;;;;;;;;;;;;;;;;;;5077123;28;20011;-27
2022/07/23 07:45:23;;;;;;;;;;;;;;;;;;5077059;28;19912;-27
2022/07/23 07:47:49;;;;;;;;;;;;;;;;;;5076991;28;19970;-27
2022/07/23 07:50:15;;;;;;;;;;;;;;;;;;5076818;28;19916;-27
2022/07/23 07:52:40;;;;;;;;;;;;;;;;;;5076994;28;19944;-27
2022/07/23 07:55:06;;;;;;;;;;;;;;;;;;5077736;28;19947;-27
2022/07/23 07:57:32;;;;;;;;;;;;;;;;;;5075998;28;19920;-27
2022/07/23 07:59:58;;;;;;;;;;;;;;;;;;5076840;28;20011;-27
2022/07/23 08:02:24;;;;;;;;;;;;;;;;;;5077057;28;19974;-27
2022/07/23 08:04:50;;;;;;;;;;;;;;;;;;5076751;28;19978;-27
2022/07/23 08:07:16;;;;;;;;;;;;;;;;;;5076973;28;19926;-27
2022/07/23 08:09:42;;;;;;;;;;;;;;;;;;5076575;28;20339;-27
2022/07/23 08:12:08;;;;;;;;;;;;;;;;;;5076628;28;19919;-27
2022/07/23 08:14:34;;;;;;;;;;;;;;;;;;5077164;28;19969;-27
2022/07/23 08:17:00;;;;;;;;;;;;;;;;;;5076761;28;19912;-27
2022/07/23 08:19:26;;;;;;;;;;;;;;;;;;5076955;28;19913;-27
2022/07/23 08:21:52;;;;;;;;;;;;;;;;;;5076430;28;19956;-27
2022/07/23 08:24:18;;;;;;;;;;;;;;;;;;5076576;28;19966;-27
2022/07/23 08:26:44;;;;;;;;;;;;;;;;;;5075122;28;19922;-27
2022/07/23 08:29:10;;;;;;;;;;;;;;;;;;5076191;28;19995;-27
2022/07/23 08:31:36;;;;;;;;;;;;;;;;;;5076755;28;19912;-27
2022/07/23 08:34:02;;;;;;;;;;;;;;;;;;5077187;28;19909;-27
2022/07/23 08:36:31;;;;;;;;;;;;;;;;;;5076111;28;19922;-27
2022/07/23 08:38:57;;;;;;;;;;;;;;;;;;5076339;28;20001;-27
2022/07/23 08:41:23;;;;;;;;;;;;;;;;;;5076049;28;19960;-27
2022/07/23 08:43:49;;;;;;;;;;;;;;;;;;5075885;28;19970;-27
2022/07/23 08:46:15;;;;;;;;;;;;;;;;;;5076716;28;20004;-27
2022/07/23 08:48:41;;;;;;;;;;;;;;;;;;5075691;28;19991;-27
2022/07/23 08:51:07;;;;;;;;;;;;;;;;;;5076200;28;19955;-27
2022/07/23 08:53:35;;;;;;;;;;;;;;;;;;5076099;28;20018;-27
2022/07/23 08:56:04;;;;;;;;;;;;;;;;;;5075752;28;19923;-27
2022/07/23 08:58:30;;;;;;;;;;;;;;;;;;5075953;28;20255;-27
2022/07/23 09:00:59;;;;;;;;;;;;;;;;;;5075666;28;19912;-27
2022/07/23 09:03:25;;;;;;;;;;;;;;;;;;5076200;28;19908;-27
2022/07/23 09:05:51;;;;;;;;;;;;;;;;;;5075908;28;19923;-27
2022/07/23 09:08:17;;;;;;;;;;;;;;;;;;5075676;28;19917;-27
2022/07/23 09:10:43;;;;;;;;;;;;;;;;;;5075849;28;20254;-27
2022/07/23 09:13:09;;;;;;;;;;;;;;;;;;5075447;28;20031;-27
2022/07/23 09:15:35;;;;;;;;;;;;;;;;;;5075467;28;20011;-27
2022/07/23 09:18:01;;;;;;;;;;;;;;;;;;5075618;28;19912;-27
2022/07/23 09:20:28;;;;;;;;;;;;;;;;;;5074357;28;20386;-27
2022/07/23 09:22:54;;;;;;;;;;;;;;;;;;5075589;28;19916;-27
2022/07/23 09:25:20;;;;;;;;;;;;;;;;;;5075461;28;19971;-27
2022/07/23 09:27:46;;;;;;;;;;;;;;;;;;5075138;28;19912;-27
2022/07/23 09:30:12;;;;;;;;;;;;;;;;;;5075173;28;20069;-27
2022/07/23 09:32:38;;;;;;;;;;;;;;;;;;5075455;28;19954;-27
2022/07/23 09:35:04;;;;;;;;;;;;;;;;;;5075166;28;19913;-27
2022/07/23 09:37:30;;;;;;;;;;;;;;;;;;5075407;28;20315;-27
2022/07/23 09:39:56;;;;;;;;;;;;;;;;;;5074151;28;19956;-27
2022/07/23 09:42:22;;;;;;;;;;;;;;;;;;5075031;28;19912;-27
2022/07/23 09:44:48;;;;;;;;;;;;;;;;;;5076105;28;19920;-27
2022/07/23 09:47:14;;;;;;;;;;;;;;;;;;5074917;28;20355;-27
2022/07/23 09:49:41;;;;;;;;;;;;;;;;;;5073992;28;20139;-27
2022/07/23 09:52:07;;;;;;;;;;;;;;;;;;5075525;28;19904;-27
2022/07/23 09:54:34;;;;;;;;;;;;;;;;;;5074931;28;19942;-27
2022/07/23 09:57:00;;;;;;;;;;;;;;;;;;5075169;28;19912;-27
2022/07/23 09:59:26;;;;;;;;;;;;;;;;;;5074845;28;19931;-27
2022/07/23 10:01:53;;;;;;;;;;;;;;;;;;5075304;28;19908;-27
2022/07/23 10:04:19;;;;;;;;;;;;;;;;;;5075985;28;19951;-27
2022/07/23 10:06:44;;;;;;;;;;;;;;;;;;5074820;28;20291;-27
2022/07/23 10:09:10;;;;;;;;;;;;;;;;;;5075024;28;19947;-27
2022/07/23 10:11:36;;;;;;;;;;;;;;;;;;5074823;28;19913;-27
2022/07/23 10:14:04;;;;;;;;;;;;;;;;;;5074794;28;20376;-27
2022/07/23 10:16:30;;;;;;;;;;;;;;;;;;5075048;28;19913;-27
2022/07/23 10:18:56;;;;;;;;;;;;;;;;;;5074975;28;19962;-27
2022/07/23 10:21:22;;;;;;;;;;;;;;;;;;5074662;28;19912;-27
2022/07/23 10:23:49;;;;;;;;;;;;;;;;;;5073741;28;19916;-27
2022/07/23 10:26:15;;;;;;;;;;;;;;;;;;5074521;28;19912;-27
2022/07/23 10:28:41;;;;;;;;;;;;;;;;;;5075333;28;19966;-27
2022/07/23 10:31:07;;;;;;;;;;;;;;;;;;5074597;28;19913;-27
2022/07/23 10:33:33;;;;;;;;;;;;;;;;;;5074904;28;19920;-27
2022/07/23 10:35:59;;;;;;;;;;;;;;;;;;5074802;28;19917;-27
2022/07/23 10:38:25;;;;;;;;;;;;;;;;;;5074456;28;19959;-27
2022/07/23 10:40:51;;;;;;;;;;;;;;;;;;5074383;28;19920;-27
2022/07/23 10:43:17;;;;;;;;;;;;;;;;;;5074762;28;19909;-27
2022/07/23 10:45:43;;;;;;;;;;;;;;;;;;5074726;28;19923;-27
2022/07/23 10:48:09;;;;;;;;;;;;;;;;;;5074263;28;20258;-27
2022/07/23 10:50:35;;;;;;;;;;;;;;;;;;5076350;28;20026;-27
2022/07/23 10:53:01;;;;;;;;;;;;;;;;;;5078121;28;19904;-27
2022/07/23 10:55:27;;;;;;;;;;;;;;;;;;5078119;28;19941;-27
2022/07/23 10:57:53;;;;;;;;;;;;;;;;;;5078555;28;19915;-27
2022/07/23 11:00:19;;;;;;;;;;;;;;;;;;5078314;28;20363;-27
2022/07/23 11:02:45;;;;;;;;;;;;;;;;;;5078281;28;19966;-27
2022/07/23 11:05:11;;;;;;;;;;;;;;;;;;5078239;28;19909;-27
2022/07/23 11:07:37;;;;;;;;;;;;;;;;;;5077770;28;20401;-27
2022/07/23 11:10:03;;;;;;;;;;;;;;;;;;5077865;28;19919;-27
2022/07/23 11:12:29;;;;;;;;;;;;;;;;;;5077876;28;19943;-27
2022/07/23 11:14:56;;;;;;;;;;;;;;;;;;5078385;28;19916;-27
2022/07/23 11:17:22;;;;;;;;;;;;;;;;;;5078007;28;19912;-27
2022/07/23 11:19:48;;;;;;;;;;;;;;;;;;5077683;28;19919;-27
2022/07/23 11:22:14;;;;;;;;;;;;;;;;;;5078225;28;20358;-27
2022/07/23 11:24:40;;;;;;;;;;;;;;;;;;5077930;28;19966;-27
2022/07/23 11:27:06;;;;;;;;;;;;;;;;;;5078087;28;19916;-27
2022/07/23 11:29:35;;;;;;;;;;;;;;;;;;5077757;28;19925;-27
2022/07/23 11:32:01;;;;;;;;;;;;;;;;;;5077712;28;20383;-27
2022/07/23 11:34:27;;;;;;;;;;;;;;;;;;5077480;28;19955;-27
2022/07/23 11:36:53;;;;;;;;;;;;;;;;;;5077428;28;19966;-27
2022/07/23 11:39:19;;;;;;;;;;;;;;;;;;5077350;28;19983;-27
2022/07/23 11:41:44;;;;;;;;;;;;;;;;;;5077865;28;19912;-26
2022/07/23 11:44:10;;;;;;;;;;;;;;;;;;5077926;28;20242;-27
2022/07/23 11:46:36;;;;;;;;;;;;;;;;;;5077138;28;20262;-27
2022/07/23 11:49:02;;;;;;;;;;;;;;;;;;5077061;28;19924;-27
2022/07/23 11:51:31;;;;;;;;;;;;;;;;;;5077365;28;20017;-27
2022/07/23 11:53:57;;;;;;;;;;;;;;;;;;5077367;28;19919;-27
2022/07/23 11:56:23;;;;;;;;;;;;;;;;;;5077547;28;19913;-27
2022/07/23 11:58:49;;;;;;;;;;;;;;;;;;5076975;28;20378;-27
2022/07/23 12:01:15;;;;;;;;;;;;;;;;;;5076747;28;19912;-27
2022/07/23 12:03:41;;;;;;;;;;;;;;;;;;5076948;28;19931;-27
2022/07/23 12:06:07;;;;;;;;;;;;;;;;;;5077392;28;20335;-27
2022/07/23 12:08:33;;;;;;;;;;;;;;;;;;5077069;28;19935;-27
2022/07/23 12:10:59;;;;;;;;;;;;;;;;;;5075793;28;19966;-27
2022/07/23 12:13:25;;;;;;;;;;;;;;;;;;5077020;28;20404;-27
2022/07/23 12:15:51;;;;;;;;;;;;;;;;;;5076933;28;19923;-27
2022/07/23 12:18:17;;;;;;;;;;;;;;;;;;5076780;28;19908;-27
2022/07/23 12:20:43;;;;;;;;;;;;;;;;;;5077104;28;20399;-27
2022/07/23 12:23:09;;;;;;;;;;;;;;;;;;5076516;28;19913;-27
2022/07/23 12:25:35;;;;;;;;;;;;;;;;;;5076454;28;19912;-27
2022/07/23 12:28:01;;;;;;;;;;;;;;;;;;5076280;28;20358;-27
2022/07/23 12:30:27;;;;;;;;;;;;;;;;;;5076657;28;19939;-27
2022/07/23 12:32:54;;;;;;;;;;;;;;;;;;5076309;28;19908;-27
2022/07/23 12:35:20;;;;;;;;;;;;;;;;;;5076243;28;19916;-27
2022/07/23 12:37:46;;;;;;;;;;;;;;;;;;5076779;28;20286;-27
2022/07/23 12:40:11;;;;;;;;;;;;;;;;;;5076002;28;19913;-27
2022/07/23 12:42:37;;;;;;;;;;;;;;;;;;5076128;28;19958;-27
2022/07/23 12:45:03;;;;;;;;;;;;;;;;;;5076079;28;19959;-27
2022/07/23 12:47:29;;;;;;;;;;;;;;;;;;5075958;28;19963;-27
2022/07/23 12:49:55;;;;;;;;;;;;;;;;;;5071432;28;19920;-27
2022/07/23 12:52:21;;;;;;;;;;;;;;;;;;5055927;28;19939;-27
2022/07/23 12:54:47;;;;;;;;;;;;;;;;;;5056164;28;20031;-27
2022/07/23 12:57:13;;;;;;;;;;;;;;;;;;5056118;28;19935;-27
2022/07/23 12:59:39;;;;;;;;;;;;;;;;;;5055997;28;19951;-27
2022/07/23 13:02:05;;;;;;;;;;;;;;;;;;5056035;28;20286;-27
2022/07/23 13:04:33;;;;;;;;;;;;;;;;;;5055711;28;19913;-27
2022/07/23 13:07:00;;;;;;;;;;;;;;;;;;5055900;28;20075;-27
2022/07/23 13:09:26;;;;;;;;;;;;;;;;;;5055602;28;19952;-27
2022/07/23 13:11:52;;;;;;;;;;;;;;;;;;5055648;28;19912;-27
2022/07/23 13:14:18;;;;;;;;;;;;;;;;;;5055270;28;20423;-27
2022/07/23 13:16:44;;;;;;;;;;;;;;;;;;5055463;28;20004;-27
2022/07/23 13:19:10;;;;;;;;;;;;;;;;;;5055559;28;19909;-27
2022/07/23 13:21:36;;;;;;;;;;;;;;;;;;5056002;28;19912;-27
2022/07/23 13:24:02;;;;;;;;;;;;;;;;;;5055398;28;20413;-27
2022/07/23 13:26:28;;;;;;;;;;;;;;;;;;5055262;28;20237;-27
2022/07/23 13:28:54;;;;;;;;;;;;;;;;;;5055272;28;19959;-27
2022/07/23 13:31:20;;;;;;;;;;;;;;;;;;5055312;28;19917;-27
2022/07/23 13:33:46;;;;;;;;;;;;;;;;;;5055301;28;20313;-27
2022/07/23 13:36:12;;;;;;;;;;;;;;;;;;5055247;28;20255;-27
2022/07/23 13:38:38;;;;;;;;;;;;;;;;;;5054239;28;19958;-27
2022/07/23 13:41:04;;;;;;;;;;;;;;;;;;5055441;28;19924;-27
2022/07/23 13:43:30;;;;;;;;;;;;;;;;;;5055720;28;20339;-27
2022/07/23 13:45:56;;;;;;;;;;;;;;;;;;5055051;28;20457;-27
2022/07/23 13:48:22;;;;;;;;;;;;;;;;;;5054976;28;19913;-27
2022/07/23 13:50:48;;;;;;;;;;;;;;;;;;5074791;28;20003;-27
2022/07/23 13:53:14;;;;;;;;;;;;;;;;;;5075673;28;19909;-27
2022/07/23 13:55:40;;;;;;;;;;;;;;;;;;5075066;28;20339;-27
2022/07/23 13:58:06;;;;;;;;;;;;;;;;;;5074996;28;19908;-27
2022/07/23 14:00:32;;;;;;;;;;;;;;;;;;5075548;28;19921;-27
2022/07/23 14:02:58;;;;;;;;;;;;;;;;;;5075021;28;19935;-27
2022/07/23 14:05:24;;;;;;;;;;;;;;;;;;5074949;28;19920;-27
2022/07/23 14:07:51;;;;;;;;;;;;;;;;;;5075104;28;20269;-27
2022/07/23 14:10:17;;;;;;;;;;;;;;;;;;5074877;28;19908;-26
2022/07/23 14:12:43;;;;;;;;;;;;;;;;;;5075170;28;19912;-27
2022/07/23 14:15:09;;;;;;;;;;;;;;;;;;5075179;28;19916;-27
2022/07/23 14:17:35;;;;;;;;;;;;;;;;;;5075400;28;19983;-27
2022/07/23 14:20:01;;;;;;;;;;;;;;;;;;5074741;28;19913;-27
2022/07/23 14:22:27;;;;;;;;;;;;;;;;;;5074782;28;20030;-27
2022/07/23 14:24:53;;;;;;;;;;;;;;;;;;5077872;28;20006;-27
2022/07/23 14:27:19;;;;;;;;;;;;;;;;;;5078906;28;19920;-27
2022/07/23 14:29:45;;;;;;;;;;;;;;;;;;5079077;28;20309;-27
2022/07/23 14:32:11;;;;;;;;;;;;;;;;;;5079179;28;19919;-27
2022/07/23 14:34:37;;;;;;;;;;;;;;;;;;5078582;28;19909;-27
2022/07/23 14:37:03;;;;;;;;;;;;;;;;;;5079074;28;20313;-27
2022/07/23 14:39:29;;;;;;;;;;;;;;;;;;5078534;28;19912;-27
2022/07/23 14:41:55;;;;;;;;;;;;;;;;;;5078403;28;19943;-27
2022/07/23 14:44:21;;;;;;;;;;;;;;;;;;5078306;28;20343;-27
2022/07/23 14:46:47;;;;;;;;;;;;;;;;;;5078556;28;19912;-27
2022/07/23 14:49:13;;;;;;;;;;;;;;;;;;5078162;28;20019;-27
2022/07/23 14:51:42;;;;;;;;;;;;;;;;;;5078261;28;19963;-27
2022/07/23 14:54:08;;;;;;;;;;;;;;;;;;5078497;28;19908;-27
2022/07/23 14:56:35;;;;;;;;;;;;;;;;;;5078392;28;20366;-27
2022/07/23 14:59:01;;;;;;;;;;;;;;;;;;5078106;28;19915;-27
2022/07/23 15:01:27;;;;;;;;;;;;;;;;;;5078628;28;19913;-27
2022/07/23 15:03:53;;;;;;;;;;;;;;;;;;5078100;28;20224;-27
2022/07/23 15:06:19;;;;;;;;;;;;;;;;;;5077961;28;20298;-27
2022/07/23 15:08:46;;;;;;;;;;;;;;;;;;5078110;28;19912;-27
2022/07/23 15:11:12;;;;;;;;;;;;;;;;;;5078163;28;20278;-27
2022/07/23 15:13:38;;;;;;;;;;;;;;;;;;5077880;28;19908;-27
2022/07/23 15:16:04;;;;;;;;;;;;;;;;;;5077797;28;19924;-27
2022/07/23 15:18:29;;;;;;;;;;;;;;;;;;5078247;28;20334;-27
2022/07/23 15:20:55;;;;;;;;;;;;;;;;;;5077815;28;20297;-27
2022/07/23 15:23:21;;;;;;;;;;;;;;;;;;5077684;28;19912;-27
2022/07/23 15:25:47;;;;;;;;;;;;;;;;;;5077624;28;20030;-27
2022/07/23 15:28:13;;;;;;;;;;;;;;;;;;5077745;28;19923;-27
2022/07/23 15:30:39;;;;;;;;;;;;;;;;;;5077534;28;19916;-27
2022/07/23 15:33:05;;;;;;;;;;;;;;;;;;5077848;28;19939;-27
2022/07/23 15:35:31;;;;;;;;;;;;;;;;;;5076896;28;19912;-27
2022/07/23 15:37:57;;;;;;;;;;;;;;;;;;5077366;28;20254;-27
2022/07/23 15:40:23;;;;;;;;;;;;;;;;;;5077978;28;19962;-26
2022/07/23 15:42:49;;;;;;;;;;;;;;;;;;5077586;28;19916;-27
2022/07/23 15:45:15;;;;;;;;;;;;;;;;;;5077351;28;20000;-27
2022/07/23 15:47:41;;;;;;;;;;;;;;;;;;5077188;28;20224;-27
2022/07/23 15:50:07;;;;;;;;;;;;;;;;;;5076075;28;19951;-27
2022/07/23 15:52:33;;;;;;;;;;;;;;;;;;5076596;28;19966;-27
2022/07/23 15:54:59;;;;;;;;;;;;;;;;;;5077124;28;19916;-27
2022/07/23 15:57:25;;;;;;;;;;;;;;;;;;5077304;28;20343;-27
2022/07/23 15:59:51;;;;;;;;;;;;;;;;;;5077216;28;19912;-27
2022/07/23 16:02:17;;;;;;;;;;;;;;;;;;5076987;28;19912;-27
2022/07/23 16:04:43;;;;;;;;;;;;;;;;;;5076826;28;19912;-27
2022/07/23 16:07:09;;;;;;;;;;;;;;;;;;5076796;28;19922;-27
2022/07/23 16:09:35;;;;;;;;;;;;;;;;;;5076803;28;19919;-27
2022/07/23 16:12:01;;;;;;;;;;;;;;;;;;5077019;28;19908;-27
2022/07/23 16:14:27;;;;;;;;;;;;;;;;;;5077039;28;19913;-27
2022/07/23 16:16:53;;;;;;;;;;;;;;;;;;5076953;28;19966;-27
2022/07/23 16:19:19;;;;;;;;;;;;;;;;;;5076643;28;19916;-27
2022/07/23 16:21:45;;;;;;;;;;;;;;;;;;5077122;28;19962;-27
2022/07/23 16:24:11;;;;;;;;;;;;;;;;;;5076506;28;20327;-27
2022/07/23 16:26:37;;;;;;;;;;;;;;;;;;5076433;28;19913;-27
2022/07/23 16:29:03;;;;;;;;;;;;;;;;;;5076405;28;20313;-27
2022/07/23 16:31:30;;;;;;;;;;;;;;;;;;5076616;28;19912;-27
2022/07/23 16:33:56;;;;;;;;;;;;;;;;;;5076421;28;19916;-27
2022/07/23 16:36:22;;;;;;;;;;;;;;;;;;5076585;28;19912;-27